Coonrod, New York
Current Conditions -  °F | °C
As of 10:53 AM on Thursday 29 Jan 2015 (Local Time) from KRME Reporting Station
Clear Clear  
Wind Chill: 10°   Ceiling: Unl
Heat Index: 20°   Visibility: 10mi
Dew Point:   Wind: 8mph
Humidity: 48%   Direction: 120°ESE
Pressure: 30.18"   Gusts: NA
Location:  43.2466°N, 75.4624°W
Report Text: KRME 291553Z 12007KT 10SM CLR M07/M16 A3018 RMK AO2 SLP229 T10671161
Loading
Personal Weather Stations






























Interactive Weather Map New forecast layout! Learn more

10-Day Weather Forecast

Advertisements
Track Severe Weather on mobile